Cape Cod Natl Seashore, Massachusetts
Current Conditions -  °F | °C
As of 8:35 PM on Thursday 18 Dec 2014 (Local Time) from KPVC Reporting Station
Overcast Overcast  
Wind Chill: 32°   Ceiling: 3100
Heat Index: 41°   Visibility: 10mi
Dew Point: 28°   Wind: 21mph
Humidity: 61%   Direction: 290°WNW
Pressure: 29.83"   Gusts: 28mph
Location:  41.97°N, 70.01°W
Report Text: KPVC 190135Z 29018G24KT 10SM BKN031 BKN037 OVC050 05/M02 A2983 RMK AO1
Loading
Personal Weather Stations






























Interactive Weather Map New forecast layout! Learn more

10-Day Weather Forecast

Advertisements
Track Severe Weather on mobile